Time;durP1;ratioP1;P1;durP2;ratioP2;P2;SDS_P1;SDS_P2;PMS_P1;PMS_P2;Temp;Humidity;BMP_temperature;BMP_pressure;BME280_temperature;BME280_humidity;BME280_pressure;Samples;Min_cycle;Max_cycle;Signal;HPM_P1;HPM_P2
2023/08/26 04:31:06;;;;;;;0.00;0.00;;;15.30;79.70;;;;;;5645137;23;20137;-78
2023/08/26 04:33:31;;;;;;;0.00;0.00;;;15.20;80.00;;;;;;5007013;28;20056;-77
2023/08/26 04:35:57;;;;;;;0.00;0.00;;;15.30;79.70;;;;;;5002078;28;20484;-78
2023/08/26 04:38:22;;;;;;;0.08;0.08;;;15.30;79.90;;;;;;4996878;28;20103;-79
2023/08/26 04:40:48;;;;;;;0.00;0.00;;;15.20;79.90;;;;;;4998565;28;20058;-77
2023/08/26 04:43:14;;;;;;;0.00;0.00;;;15.20;80.00;;;;;;4996455;28;20054;-77
2023/08/26 04:45:40;;;;;;;0.00;0.00;;;15.20;80.10;;;;;;4996790;28;20057;-77
2023/08/26 04:48:07;;;;;;;0.10;0.10;;;15.20;80.20;;;;;;4999768;28;20094;-77
2023/08/26 04:50:33;;;;;;;0.10;0.10;;;15.20;80.20;;;;;;5014650;28;20022;-77
2023/08/26 04:52:59;;;;;;;0.10;0.10;;;15.20;80.20;;;;;;4999906;28;20034;-77
2023/08/26 04:55:25;;;;;;;0.00;0.00;;;15.20;80.10;;;;;;5003853;28;20080;-79
2023/08/26 04:57:51;;;;;;;0.10;0.10;;;15.20;80.00;;;;;;5000024;28;20057;-80
2023/08/26 05:00:16;;;;;;;0.00;0.00;;;15.20;79.90;;;;;;4999066;28;20022;-78
2023/08/26 05:02:43;;;;;;;0.05;0.05;;;15.20;79.90;;;;;;5007265;28;20026;-78
2023/08/26 05:05:09;;;;;;;0.00;0.00;;;15.10;80.00;;;;;;5005277;28;20090;-79
2023/08/26 05:07:35;;;;;;;0.10;0.10;;;15.20;79.90;;;;;;5012563;28;20030;-79
2023/08/26 05:10:03;;;;;;;0.00;0.00;;;15.20;79.90;;;;;;4999845;28;20026;-78
2023/08/26 05:12:29;;;;;;;0.00;0.00;;;15.10;80.00;;;;;;4999556;28;20109;-78
2023/08/26 05:14:55;;;;;;;0.00;0.00;;;15.10;80.10;;;;;;5000106;28;20035;-79
2023/08/26 05:17:21;;;;;;;0.00;0.00;;;15.10;80.30;;;;;;4999592;28;20057;-79
2023/08/26 05:19:47;;;;;;;0.00;0.00;;;15.00;80.50;;;;;;5009614;28;20089;-78
2023/08/26 05:22:12;;;;;;;0.03;0.03;;;15.00;80.60;;;;;;4999758;28;20105;-79
2023/08/26 05:24:38;;;;;;;0.00;0.00;;;15.00;80.70;;;;;;5003220;28;20101;-79
2023/08/26 05:27:04;;;;;;;0.00;0.00;;;15.00;81.00;;;;;;4999849;28;20023;-79
2023/08/26 05:29:30;;;;;;;0.00;0.00;;;15.10;81.00;;;;;;4997783;28;20034;-78
2023/08/26 05:31:55;;;;;;;0.00;0.00;;;15.00;81.10;;;;;;4999845;28;20050;-78
2023/08/26 05:34:21;;;;;;;0.10;0.10;;;15.00;81.20;;;;;;5012955;28;20076;-79
2023/08/26 05:36:46;;;;;;;0.03;0.03;;;15.00;81.20;;;;;;5000175;28;20034;-79
2023/08/26 05:39:12;;;;;;;0.00;0.00;;;15.10;81.00;;;;;;4999111;28;20065;-79
2023/08/26 05:41:38;;;;;;;0.00;0.00;;;15.20;80.80;;;;;;5007142;28;20026;-79
2023/08/26 05:44:03;;;;;;;0.00;0.00;;;15.20;80.60;;;;;;4999563;28;20057;-79
2023/08/26 05:46:29;;;;;;;0.00;0.00;;;15.20;80.90;;;;;;4999208;28;20026;-79
2023/08/26 05:48:55;;;;;;;0.00;0.00;;;15.30;80.70;;;;;;5013473;28;20030;-80
2023/08/26 05:51:20;;;;;;;0.00;0.00;;;15.30;80.70;;;;;;5016150;28;20049;-80
2023/08/26 05:53:46;;;;;;;0.00;0.00;;;15.30;80.60;;;;;;5017021;28;20030;-80
2023/08/26 05:56:11;;;;;;;0.10;0.10;;;15.30;80.50;;;;;;5005895;28;20027;-79
2023/08/26 05:58:37;;;;;;;0.00;0.00;;;15.30;80.80;;;;;;4998811;28;20528;-79
2023/08/26 06:01:03;;;;;;;0.10;0.10;;;15.30;80.70;;;;;;5006687;28;20083;-83
2023/08/26 06:03:29;;;;;;;0.10;0.08;;;15.40;80.50;;;;;;5017657;28;20018;-83
2023/08/26 06:05:55;;;;;;;0.00;0.00;;;15.40;80.50;;;;;;5023473;28;20029;-87
2023/08/26 06:08:20;;;;;;;0.00;0.00;;;15.50;80.40;;;;;;4997439;28;20030;-82
2023/08/26 06:10:46;;;;;;;0.00;0.00;;;15.50;80.20;;;;;;4998907;28;20033;-81
2023/08/26 06:13:11;;;;;;;0.10;0.10;;;15.50;80.20;;;;;;4999220;28;20037;-81
2023/08/26 06:15:38;;;;;;;0.00;0.00;;;15.60;80.20;;;;;;5000692;28;20412;-87
2023/08/26 06:18:04;;;;;;;0.10;0.10;;;15.50;80.00;;;;;;5004068;28;20034;-89
2023/08/26 06:20:29;;;;;;;0.08;0.08;;;15.50;80.20;;;;;;5002745;28;20030;-86
2023/08/26 06:22:55;;;;;;;0.00;0.00;;;15.40;80.50;;;;;;4998862;28;20034;-88
2023/08/26 06:25:20;;;;;;;0.00;0.00;;;15.30;80.80;;;;;;5004191;28;20018;-88
2023/08/26 06:27:46;;;;;;;0.00;0.00;;;15.40;80.60;;;;;;4998540;28;20032;-86
2023/08/26 06:30:12;;;;;;;0.00;0.00;;;15.50;80.70;;;;;;4997455;28;20113;-87
2023/08/26 06:32:37;;;;;;;0.08;0.08;;;15.50;80.70;;;;;;4998836;28;20412;-86
2023/08/26 06:35:04;;;;;;;0.03;0.03;;;15.60;80.70;;;;;;5008168;28;20025;-87
2023/08/26 06:37:30;;;;;;;0.00;0.00;;;15.60;80.80;;;;;;5013483;28;20030;-83
2023/08/26 06:39:55;;;;;;;0.00;0.00;;;15.70;80.90;;;;;;5016705;28;20499;-88
2023/08/26 06:42:21;;;;;;;0.00;0.00;;;15.70;81.00;;;;;;5010333;28;20039;-78
2023/08/26 06:44:47;;;;;;;0.00;0.00;;;15.80;81.20;;;;;;5013485;28;20026;-82
2023/08/26 06:47:13;;;;;;;0.10;0.10;;;15.80;81.20;;;;;;4997807;28;20033;-80
2023/08/26 06:49:38;;;;;;;0.05;0.05;;;15.80;81.30;;;;;;4998001;28;20022;-80
2023/08/26 06:52:04;;;;;;;0.10;0.10;;;15.80;81.40;;;;;;4997133;28;20066;-80
2023/08/26 06:54:33;;;;;;;0.00;0.00;;;15.90;81.40;;;;;;5006546;28;20100;-79
2023/08/26 06:56:59;;;;;;;0.00;0.00;;;16.00;81.30;;;;;;4997789;28;20027;-82
2023/08/26 06:59:24;;;;;;;0.10;0.10;;;16.10;81.10;;;;;;4997535;28;20054;-81
2023/08/26 07:01:50;;;;;;;0.00;0.00;;;16.10;81.00;;;;;;5009300;28;20137;-80
2023/08/26 07:04:15;;;;;;;0.10;0.10;;;16.10;81.10;;;;;;5011292;28;20022;-81
2023/08/26 07:06:41;;;;;;;0.10;0.10;;;16.10;81.20;;;;;;5008190;28;20029;-81
2023/08/26 07:09:07;;;;;;;0.10;0.10;;;16.20;81.00;;;;;;5015981;28;20195;-80
2023/08/26 07:11:32;;;;;;;0.08;0.08;;;16.20;81.10;;;;;;5015850;28;20037;-80
2023/08/26 07:13:59;;;;;;;0.10;0.10;;;16.30;80.90;;;;;;5010607;28;20488;-81
2023/08/26 07:16:26;;;;;;;0.10;0.10;;;16.30;80.90;;;;;;5011197;28;20053;-82
2023/08/26 07:18:52;;;;;;;0.10;0.10;;;16.40;80.70;;;;;;5001080;28;20567;-81
2023/08/26 07:21:17;;;;;;;0.10;0.10;;;16.60;80.40;;;;;;5006035;28;20133;-81
2023/08/26 07:23:43;;;;;;;0.00;0.00;;;16.60;80.30;;;;;;5011894;28;20481;-81
2023/08/26 07:26:08;;;;;;;0.00;0.00;;;16.80;80.10;;;;;;5008337;28;20443;-80
2023/08/26 07:28:34;;;;;;;0.05;0.05;;;16.90;79.80;;;;;;4997061;28;20053;-80
2023/08/26 07:31:04;;;;;;;0.10;0.10;;;17.00;79.50;;;;;;4997051;28;20052;-79
2023/08/26 07:33:31;;;;;;;0.10;0.10;;;17.20;79.20;;;;;;5004749;28;20033;-79
2023/08/26 07:36:08;;;;;;;0.05;0.05;;;17.40;78.60;;;;;;5011400;28;20036;-79
2023/08/26 07:38:34;;;;;;;0.10;0.10;;;17.50;78.10;;;;;;5008779;28;20019;-81
2023/08/26 07:41:00;;;;;;;0.10;0.10;;;17.60;77.60;;;;;;5008666;28;20106;-79
2023/08/26 07:43:26;;;;;;;0.08;0.08;;;17.70;77.50;;;;;;4996436;28;20112;-79
2023/08/26 07:45:51;;;;;;;0.03;0.03;;;18.00;76.80;;;;;;4995293;28;20403;-80
2023/08/26 07:48:17;;;;;;;0.10;0.10;;;18.10;76.20;;;;;;4995858;28;20030;-80
2023/08/26 07:50:43;;;;;;;0.00;0.00;;;18.10;75.70;;;;;;5009265;28;20072;-80
2023/08/26 07:53:09;;;;;;;0.10;0.10;;;18.20;75.50;;;;;;5012256;28;20033;-80
2023/08/26 07:55:35;;;;;;;0.05;0.05;;;18.40;75.30;;;;;;5012819;28;20113;-80
2023/08/26 07:58:01;;;;;;;0.10;0.10;;;18.80;73.90;;;;;;5010207;28;20099;-80
2023/08/26 08:00:27;;;;;;;0.00;0.00;;;19.30;71.90;;;;;;4996192;28;20025;-80
2023/08/26 08:02:55;;;;;;;0.00;0.00;;;19.50;72.00;;;;;;4997665;28;20030;-80
2023/08/26 08:05:20;;;;;;;0.10;0.10;;;19.50;70.90;;;;;;5020300;28;20109;-80
2023/08/26 08:07:46;;;;;;;0.00;0.00;;;20.30;69.10;;;;;;4996355;28;20030;-80
2023/08/26 08:10:12;;;;;;;0.10;0.10;;;20.40;68.10;;;;;;4996531;28;20038;-80
2023/08/26 08:12:37;;;;;;;0.10;0.10;;;21.10;67.00;;;;;;4995986;28;20034;-78
2023/08/26 08:15:04;;;;;;;0.10;0.10;;;21.30;65.30;;;;;;4998104;28;20053;-78
2023/08/26 08:17:30;;;;;;;0.20;0.20;;;22.60;62.40;;;;;;5003389;28;20034;-79
2023/08/26 08:19:56;;;;;;;0.30;0.30;;;23.80;58.90;;;;;;4996806;28;20034;-79
2023/08/26 08:22:38;;;;;;;0.22;0.22;;;24.40;56.40;;;;;;5001932;28;20030;-79
2023/08/26 08:25:05;;;;;;;0.10;0.10;;;24.40;55.20;;;;;;5011145;28;20034;-79
2023/08/26 08:27:31;;;;;;;0.10;0.10;;;24.10;55.30;;;;;;5000377;28;20034;-79
2023/08/26 08:29:58;;;;;;;0.10;0.10;;;23.40;56.80;;;;;;5004390;28;20118;-79
2023/08/26 08:32:23;;;;;;;0.00;0.00;;;22.80;58.10;;;;;;5001748;28;20042;-79
2023/08/26 08:34:49;;;;;;;0.10;0.10;;;22.60;59.20;;;;;;5003004;28;20035;-79
2023/08/26 08:37:15;;;;;;;0.00;0.00;;;22.30;60.10;;;;;;4999162;28;20023;-78
2023/08/26 08:39:41;;;;;;;0.00;0.00;;;21.90;60.60;;;;;;5003750;28;20545;-78
2023/08/26 08:42:09;;;;;;;0.00;0.00;;;22.10;61.00;;;;;;5004262;28;20026;-78
2023/08/26 08:44:40;;;;;;;0.20;0.20;;;22.60;60.20;;;;;;5001925;28;20088;-79
2023/08/26 08:47:06;;;;;;;0.50;0.50;;;22.70;59.90;;;;;;5006837;28;20109;-79
2023/08/26 08:49:33;;;;;;;0.30;0.30;;;23.40;58.50;;;;;;5005073;28;20053;-79
2023/08/26 08:51:58;;;;;;;0.40;0.40;;;24.20;56.60;;;;;;4999441;28;20142;-80
2023/08/26 08:54:28;;;;;;;0.20;0.20;;;24.80;55.60;;;;;;4999881;28;20058;-80
2023/08/26 08:56:55;;;;;;;0.00;0.00;;;25.10;53.60;;;;;;4999951;28;20022;-79
2023/08/26 08:59:22;;;;;;;0.00;0.00;;;25.10;54.00;;;;;;4999382;28;20022;-79
2023/08/26 09:01:48;;;;;;;0.00;0.00;;;24.80;53.90;;;;;;5006830;28;20034;-79
2023/08/26 09:04:14;;;;;;;0.00;0.00;;;24.70;54.40;;;;;;5012212;28;20030;-79
2023/08/26 09:06:39;;;;;;;0.00;0.00;;;24.30;55.00;;;;;;5001027;28;20037;-79
2023/08/26 09:09:12;;;;;;;0.00;0.00;;;23.80;55.50;;;;;;5000169;28;20455;-79
2023/08/26 09:11:38;;;;;;;0.00;0.00;;;23.50;56.40;;;;;;4998971;28;20066;-79
2023/08/26 09:14:05;;;;;;;0.00;0.00;;;23.50;56.90;;;;;;4999379;28;20022;-81
2023/08/26 09:16:38;;;;;;;0.00;0.00;;;23.10;57.10;;;;;;4999003;28;20033;-80
2023/08/26 09:19:10;;;;;;;0.00;0.00;;;22.60;57.90;;;;;;4999102;28;20428;-80
2023/08/26 09:21:43;;;;;;;0.10;0.10;;;22.20;59.60;;;;;;4998693;28;20384;-83
2023/08/26 09:24:16;;;;;;;0.10;0.10;;;21.80;60.00;;;;;;5013295;28;20058;-81
2023/08/26 09:26:56;;;;;;;0.00;0.00;;;21.60;60.30;;;;;;4997834;28;20037;-88
2023/08/26 09:29:22;;;;;;;0.00;0.00;;;21.50;60.60;;;;;;5003386;28;20060;-83
2023/08/26 09:31:49;;;;;;;0.00;0.00;;;21.40;60.70;;;;;;5001116;28;20141;-82
2023/08/26 09:34:31;;;;;;;0.03;0.03;;;21.40;60.70;;;;;;4998957;28;20029;-83
2023/08/26 09:36:57;;;;;;;0.00;0.00;;;21.70;60.60;;;;;;5005596;28;20057;-85
2023/08/26 09:39:23;;;;;;;0.00;0.00;;;21.70;60.10;;;;;;4999142;28;20038;-79
2023/08/26 09:41:49;;;;;;;0.00;0.00;;;21.70;61.10;;;;;;5004505;28;20389;-79
2023/08/26 09:44:16;;;;;;;0.00;0.00;;;21.50;60.50;;;;;;4998955;28;20030;-81
2023/08/26 09:46:46;;;;;;;0.00;0.00;;;21.30;60.90;;;;;;4998381;28;20088;-82
2023/08/26 09:49:16;;;;;;;0.00;0.00;;;21.10;61.40;;;;;;4998560;28;20065;-80
2023/08/26 09:51:50;;;;;;;0.00;0.00;;;21.00;62.40;;;;;;4994873;28;20105;-79
2023/08/26 09:54:21;;;;;;;0.00;0.00;;;20.90;62.80;;;;;;5006015;28;20049;-80
2023/08/26 09:56:48;;;;;;;0.00;0.00;;;20.80;62.80;;;;;;5007322;28;20026;-80
2023/08/26 09:59:15;;;;;;;0.05;0.05;;;20.80;63.10;;;;;;5009480;28;20038;-80
2023/08/26 10:01:42;;;;;;;0.00;0.00;;;20.80;62.90;;;;;;5005328;28;20516;-80
2023/08/26 10:04:09;;;;;;;0.10;0.10;;;20.90;61.60;;;;;;5014721;28;20040;-81
2023/08/26 10:06:55;;;;;;;0.15;0.10;;;21.00;61.50;;;;;;5010266;28;20030;-80
2023/08/26 10:09:38;;;;;;;0.10;0.10;;;21.30;61.30;;;;;;5009328;28;20035;-80
2023/08/26 10:12:09;;;;;;;0.10;0.10;;;21.50;60.60;;;;;;5014591;28;20041;-80
2023/08/26 10:14:36;;;;;;;0.10;0.10;;;21.70;59.80;;;;;;5012919;28;20026;-80
2023/08/26 10:17:07;;;;;;;0.00;0.00;;;22.20;59.30;;;;;;5007406;28;20019;-79
2023/08/26 10:19:34;;;;;;;0.10;0.10;;;22.30;58.20;;;;;;5002583;28;20031;-80
2023/08/26 10:22:01;;;;;;;0.00;0.00;;;22.40;57.40;;;;;;4996925;28;20037;-80
2023/08/26 10:24:28;;;;;;;0.10;0.10;;;22.50;57.60;;;;;;4999568;28;20041;-80
2023/08/26 10:26:54;;;;;;;0.00;0.00;;;22.70;56.70;;;;;;5010576;28;20035;-80
2023/08/26 10:29:20;;;;;;;0.10;0.10;;;22.80;55.60;;;;;;5008215;28;20034;-82
2023/08/26 10:31:46;;;;;;;0.00;0.00;;;22.80;55.40;;;;;;5001608;28;20046;-80
2023/08/26 10:34:14;;;;;;;0.00;0.00;;;22.90;55.50;;;;;;5015021;28;20038;-88
2023/08/26 10:36:45;;;;;;;0.00;0.00;;;22.90;55.40;;;;;;5026249;28;20459;-81
2023/08/26 10:39:16;;;;;;;0.08;0.08;;;22.70;54.40;;;;;;5008717;28;20061;-87
2023/08/26 10:42:16;;;;;;;0.10;0.10;;;22.70;54.60;;;;;;5010171;28;20025;-81
2023/08/26 10:44:48;;;;;;;0.30;0.30;;;22.80;54.50;;;;;;5000323;28;20109;-81
2023/08/26 10:47:50;;;;;;;0.10;0.10;;;22.80;54.30;;;;;;4999144;28;20030;-86
2023/08/26 10:50:21;;;;;;;0.00;0.00;;;22.80;53.90;;;;;;4996093;28;20053;-87
2023/08/26 10:52:54;;;;;;;0.10;0.10;;;22.70;54.60;;;;;;5002732;28;20504;-87
2023/08/26 10:55:25;;;;;;;0.00;0.00;;;22.40;52.70;;;;;;4996983;28;20080;-88
2023/08/26 10:58:12;;;;;;;0.00;0.00;;;22.30;53.40;;;;;;5001641;28;20037;-81
2023/08/26 11:00:40;;;;;;;0.00;0.00;;;22.10;53.40;;;;;;5000540;28;20018;-86
2023/08/26 11:03:10;;;;;;;0.10;0.10;;;22.00;53.70;;;;;;5001198;28;20033;-87
2023/08/26 11:05:37;;;;;;;0.10;0.10;;;22.10;54.60;;;;;;5009617;28;20033;-84
2023/08/26 11:08:03;;;;;;;0.00;0.00;;;22.30;55.00;;;;;;5012817;28;20030;-82
2023/08/26 11:10:39;;;;;;;0.00;0.00;;;22.40;54.20;;;;;;5011362;28;20125;-84
2023/08/26 11:13:05;;;;;;;0.00;0.00;;;22.60;53.30;;;;;;5004716;28;20064;-82
2023/08/26 11:15:36;;;;;;;0.00;0.00;;;22.80;52.60;;;;;;4997167;28;20026;-82
2023/08/26 11:18:04;;;;;;;0.10;0.10;;;23.00;52.10;;;;;;4998210;28;20022;-84
2023/08/26 11:20:30;;;;;;;0.00;0.00;;;23.20;52.00;;;;;;4997104;28;20050;-83
2023/08/26 11:22:56;;;;;;;0.00;0.00;;;23.40;51.40;;;;;;4996546;28;20033;-79
2023/08/26 11:25:23;;;;;;;0.05;0.05;;;23.40;50.90;;;;;;5012148;28;20026;-85
2023/08/26 11:27:50;;;;;;;0.43;0.00;;;23.30;49.80;;;;;;5005478;28;20017;-81
2023/08/26 11:30:16;;;;;;;0.00;0.00;;;23.00;49.30;;;;;;4998461;28;20035;-87
2023/08/26 11:32:41;;;;;;;0.00;0.00;;;23.00;51.20;;;;;;5011520;28;20435;-80
2023/08/26 11:35:10;;;;;;;0.10;0.10;;;22.80;50.60;;;;;;5001058;28;20030;-86
2023/08/26 11:37:40;;;;;;;0.03;0.03;;;22.80;51.90;;;;;;5011088;28;20034;-87
2023/08/26 11:40:06;;;;;;;0.00;0.00;;;22.90;51.20;;;;;;5013212;28;20112;-85
2023/08/26 11:42:31;;;;;;;0.10;0.10;;;23.00;48.80;;;;;;5008812;28;20034;-83
2023/08/26 11:44:57;;;;;;;0.00;0.00;;;23.20;49.50;;;;;;5012708;28;20450;-84
2023/08/26 11:47:26;;;;;;;0.10;0.10;;;23.30;49.50;;;;;;5009681;28;20053;-85
2023/08/26 11:49:56;;;;;;;0.10;0.10;;;23.20;49.40;;;;;;5010930;28;20030;-85
2023/08/26 11:52:35;;;;;;;0.10;0.10;;;23.30;49.10;;;;;;5007305;28;20030;-85
2023/08/26 11:55:06;;;;;;;0.17;0.10;;;23.40;49.50;;;;;;5018060;28;20049;-86
2023/08/26 11:57:35;;;;;;;0.10;0.10;;;23.70;49.30;;;;;;5020021;28;20018;-86
2023/08/26 12:00:09;;;;;;;0.00;0.00;;;23.90;48.90;;;;;;5020102;28;20388;-86
2023/08/26 12:02:35;;;;;;;0.10;0.10;;;23.80;48.40;;;;;;5017818;28;20025;-85
2023/08/26 12:05:01;;;;;;;0.00;0.00;;;23.70;49.30;;;;;;5019716;28;20500;-86
2023/08/26 12:07:30;;;;;;;0.00;0.00;;;23.40;48.30;;;;;;5020603;28;20583;-85
2023/08/26 12:10:11;;;;;;;0.10;0.10;;;23.20;49.90;;;;;;5018616;28;20034;-86
2023/08/26 12:12:38;;;;;;;0.10;0.10;;;23.30;50.20;;;;;;5017870;28;20116;-85
2023/08/26 12:15:08;;;;;;;0.10;0.10;;;23.70;51.10;;;;;;5020664;28;20164;-92
2023/08/26 12:17:45;;;;;;;0.00;0.00;;;24.00;49.90;;;;;;5022078;28;20029;-90
2023/08/26 12:20:28;;;;;;;0.00;0.00;;;24.20;48.70;;;;;;5018015;28;20030;-85
2023/08/26 12:22:55;;;;;;;0.00;0.00;;;24.10;48.80;;;;;;5008110;28;20065;-86
2023/08/26 12:25:45;;;;;;;0.10;0.10;;;23.80;48.90;;;;;;5009342;28;20034;-88
2023/08/26 12:28:28;;;;;;;0.00;0.00;;;23.20;49.80;;;;;;5011297;28;20041;-87
2023/08/26 12:30:54;;;;;;;0.00;0.00;;;23.00;50.50;;;;;;5018397;28;20061;-87
2023/08/26 12:33:23;;;;;;;0.00;0.00;;;22.90;51.00;;;;;;5015515;28;20025;-89
2023/08/26 12:35:50;;;;;;;0.00;0.00;;;22.90;51.20;;;;;;5005425;28;20029;-86
2023/08/26 12:38:15;;;;;;;0.03;0.03;;;22.90;50.90;;;;;;5004266;28;20018;-88
2023/08/26 12:40:47;;;;;;;0.10;0.10;;;23.20;50.80;;;;;;5004090;28;20041;-89
2023/08/26 12:43:14;;;;;;;0.10;0.10;;;23.50;51.00;;;;;;5017193;28;20365;-84
2023/08/26 12:45:39;;;;;;;0.10;0.10;;;23.80;49.90;;;;;;5006580;28;20026;-82
2023/08/26 12:48:06;;;;;;;0.00;0.00;;;23.90;50.30;;;;;;5001155;28;20041;-83
2023/08/26 12:50:32;;;;;;;0.08;0.08;;;24.20;51.40;;;;;;5002042;28;20607;-85
2023/08/26 12:52:58;;;;;;;0.10;0.10;;;24.30;49.40;;;;;;5007610;28;20122;-82
2023/08/26 12:55:24;;;;;;;0.00;0.00;;;24.50;48.40;;;;;;5002050;28;20548;-85
2023/08/26 12:57:49;;;;;;;0.10;0.10;;;24.60;48.90;;;;;;5009458;28;20030;-87
2023/08/26 13:00:15;;;;;;;0.10;0.10;;;24.70;48.80;;;;;;5017323;28;20085;-84
2023/08/26 13:02:41;;;;;;;0.10;0.10;;;24.70;48.10;;;;;;5006695;28;20129;-85
2023/08/26 13:05:08;;;;;;;0.00;0.00;;;24.60;48.30;;;;;;5017688;28;20546;-86
2023/08/26 13:07:35;;;;;;;0.00;0.00;;;24.20;47.10;;;;;;5007883;28;20050;-85
2023/08/26 13:10:01;;;;;;;0.00;0.00;;;24.00;47.80;;;;;;4999148;28;20037;-82
2023/08/26 13:12:27;;;;;;;0.00;0.00;;;23.80;48.70;;;;;;4999326;28;20473;-83
2023/08/26 13:14:52;;;;;;;0.00;0.00;;;23.60;49.70;;;;;;4998865;28;20049;-82
2023/08/26 13:17:18;;;;;;;0.00;0.00;;;23.50;48.80;;;;;;4991086;28;20027;-82
2023/08/26 13:19:44;;;;;;;0.00;0.00;;;23.40;49.60;;;;;;5000524;28;20414;-82
2023/08/26 13:22:09;;;;;;;0.00;0.00;;;23.30;51.10;;;;;;5010190;28;20034;-83
2023/08/26 13:24:36;;;;;;;0.20;0.10;;;23.30;51.30;;;;;;5009219;28;20034;-82
2023/08/26 13:27:02;;;;;;;0.00;0.00;;;23.30;52.50;;;;;;5014807;28;20097;-83
2023/08/26 13:29:27;;;;;;;0.00;0.00;;;23.20;51.60;;;;;;4999173;28;20069;-82
2023/08/26 13:31:53;;;;;;;0.00;0.00;;;23.10;51.10;;;;;;4998964;28;20042;-82
2023/08/26 13:34:19;;;;;;;0.00;0.00;;;23.00;51.80;;;;;;5007860;28;20026;-82
2023/08/26 13:36:44;;;;;;;0.10;0.10;;;22.80;52.60;;;;;;5013894;28;20025;-81
2023/08/26 13:39:10;;;;;;;0.00;0.00;;;22.70;53.00;;;;;;5015612;28;20030;-81
2023/08/26 13:41:35;;;;;;;0.00;0.00;;;22.30;56.30;;;;;;5015462;28;20045;-89
2023/08/26 13:44:02;;;;;;;0.00;0.00;;;21.90;59.30;;;;;;5008491;28;20120;-90
2023/08/26 13:46:27;;;;;;;0.00;0.00;;;21.40;62.30;;;;;;5014403;28;20396;-89
2023/08/26 13:48:53;;;;;;;0.00;0.00;;;21.00;65.80;;;;;;5012725;28;20030;-88
2023/08/26 13:51:22;;;;;;;0.00;0.00;;;20.20;69.80;;;;;;5018032;28;20040;-89
2023/08/26 13:53:47;;;;;;;0.20;0.10;;;19.90;71.30;;;;;;5014802;28;20017;-92
2023/08/26 13:56:13;;;;;;;0.00;0.00;;;20.00;72.60;;;;;;5017820;28;20823;-91
2023/08/26 13:58:39;;;;;;;0.10;0.10;;;20.20;72.90;;;;;;5017621;28;20010;-89
2023/08/26 14:01:05;;;;;;;0.10;0.10;;;20.60;73.50;;;;;;5016657;28;20030;-92
2023/08/26 14:03:30;;;;;;;0.00;0.00;;;21.00;71.90;;;;;;5017708;28;20030;-91
2023/08/26 14:05:56;;;;;;;0.10;0.10;;;21.30;71.10;;;;;;5017013;28;20069;-93
2023/08/26 14:08:23;;;;;;;0.08;0.08;;;21.60;70.20;;;;;;5016198;28;20573;-91
2023/08/26 14:10:48;;;;;;;0.10;0.10;;;21.70;70.60;;;;;;5017021;28;20026;-90
2023/08/26 14:13:14;;;;;;;0.00;0.00;;;21.70;69.30;;;;;;5016223;28;20510;-81
2023/08/26 14:15:44;;;;;;;0.10;0.10;;;21.50;69.20;;;;;;5014941;28;20022;-85
2023/08/26 14:18:10;;;;;;;0.00;0.00;;;21.50;69.00;;;;;;5011931;28;20086;-89
2023/08/26 14:20:36;;;;;;;0.00;0.00;;;21.40;68.60;;;;;;5005564;28;20528;-81
2023/08/26 14:23:02;;;;;;;0.10;0.10;;;21.20;68.70;;;;;;5004958;28;20567;-87
2023/08/26 14:25:28;;;;;;;0.00;0.00;;;21.10;69.20;;;;;;5016264;28;20073;-87
2023/08/26 14:27:54;;;;;;;0.00;0.00;;;20.90;69.80;;;;;;5003798;28;20052;-81
2023/08/26 14:30:20;;;;;;;0.00;0.00;;;20.90;71.00;;;;;;4999928;28;20082;-86
2023/08/26 14:32:46;;;;;;;0.15;0.00;;;20.90;70.60;;;;;;5002353;28;20026;-83
2023/08/26 14:35:12;;;;;;;0.00;0.00;;;21.00;70.80;;;;;;5009325;28;20507;-82
2023/08/26 14:37:38;;;;;;;0.00;0.00;;;21.10;70.00;;;;;;5015209;28;20026;-80
2023/08/26 14:40:04;;;;;;;0.00;0.00;;;21.00;70.20;;;;;;5005846;28;20110;-81
2023/08/26 14:42:30;;;;;;;0.00;0.00;;;20.90;70.60;;;;;;5008680;28;20022;-84
2023/08/26 14:44:55;;;;;;;0.00;0.00;;;20.90;70.80;;;;;;5005299;28;20044;-86
2023/08/26 14:47:22;;;;;;;0.00;0.00;;;20.90;70.80;;;;;;5013360;28;20026;-81
2023/08/26 14:49:47;;;;;;;0.00;0.00;;;20.80;71.00;;;;;;4996004;28;20061;-84
2023/08/26 14:52:13;;;;;;;0.00;0.00;;;20.80;71.90;;;;;;5007599;28;20042;-85
2023/08/26 14:54:47;;;;;;;0.00;0.00;;;20.60;71.70;;;;;;5015014;28;20033;-81
2023/08/26 14:57:12;;;;;;;0.00;0.00;;;20.50;70.70;;;;;;5009920;28;20488;-80
2023/08/26 14:59:41;;;;;;;0.00;0.00;;;20.30;72.30;;;;;;5008422;28;20047;-84
2023/08/26 15:02:07;;;;;;;0.00;0.00;;;20.30;72.70;;;;;;5009794;28;20095;-88
2023/08/26 15:04:33;;;;;;;0.00;0.00;;;20.30;73.10;;;;;;5010840;28;20042;-86
2023/08/26 15:06:59;;;;;;;0.00;0.00;;;20.40;73.80;;;;;;5015817;28;20024;-84
2023/08/26 15:09:25;;;;;;;0.00;0.00;;;20.50;73.00;;;;;;5014946;28;20435;-92
2023/08/26 15:11:51;;;;;;;0.00;0.00;;;20.50;72.90;;;;;;5017277;28;20033;-87
2023/08/26 15:14:17;;;;;;;0.00;0.00;;;20.60;73.30;;;;;;5015966;28;20057;-89
2023/08/26 15:16:42;;;;;;;0.03;0.03;;;20.70;72.20;;;;;;5010600;28;20057;-91
2023/08/26 15:19:08;;;;;;;0.10;0.10;;;20.80;73.00;;;;;;5011767;28;20021;-85
2023/08/26 15:21:34;;;;;;;0.00;0.00;;;20.90;73.60;;;;;;5016266;28;20064;-85
2023/08/26 15:23:59;;;;;;;0.00;0.00;;;21.00;73.40;;;;;;5014749;28;20026;-83
2023/08/26 15:26:25;;;;;;;0.00;0.00;;;21.00;73.60;;;;;;5011222;28;20041;-88
2023/08/26 15:28:51;;;;;;;0.00;0.00;;;20.90;73.10;;;;;;5011806;28;20496;-90
2023/08/26 15:31:17;;;;;;;0.00;0.00;;;20.80;72.90;;;;;;5013359;28;20715;-91
2023/08/26 15:33:42;;;;;;;0.00;0.00;;;20.70;72.50;;;;;;5015164;28;20095;-91
2023/08/26 15:36:08;;;;;;;0.00;0.00;;;20.50;72.90;;;;;;5003515;28;20030;-91
2023/08/26 15:38:33;;;;;;;0.00;0.00;;;20.50;73.40;;;;;;5016864;28;20084;-92
2023/08/26 15:41:03;;;;;;;0.00;0.00;;;20.50;73.60;;;;;;5015190;28;20076;-93
2023/08/26 15:43:31;;;;;;;0.00;0.00;;;20.30;74.10;;;;;;5007104;28;20045;-91
2023/08/26 15:45:56;;;;;;;0.00;0.00;;;20.30;74.70;;;;;;5020023;28;20030;-93
2023/08/26 15:48:23;;;;;;;0.00;0.00;;;20.10;76.50;;;;;;5029213;28;20026;-93
2023/08/26 15:50:52;;;;;;;0.00;0.00;;;19.60;72.70;;;;;;5030654;28;20081;-93
2023/08/26 15:53:18;;;;;;;0.00;0.00;;;19.30;74.20;;;;;;5024746;28;20034;-93
2023/08/26 15:55:44;;;;;;;0.00;0.00;;;19.20;75.30;;;;;;5019595;28;20029;-93
2023/08/26 15:58:13;;;;;;;0.00;0.00;;;19.10;73.40;;;;;;5019618;28;20032;-93
2023/08/26 16:00:38;;;;;;;0.05;0.03;;;18.90;73.60;;;;;;5017714;28;20033;-93
2023/08/26 16:03:05;;;;;;;0.00;0.00;;;18.80;74.00;;;;;;5013252;28;20488;-94
2023/08/26 16:05:38;;;;;;;0.00;0.00;;;18.80;74.20;;;;;;5017096;28;20032;-92
2023/08/26 16:08:05;;;;;;;0.00;0.00;;;18.80;74.50;;;;;;5015177;28;20026;-93
2023/08/26 16:10:31;;;;;;;0.05;0.05;;;18.70;75.50;;;;;;5020734;28;20084;-93
2023/08/26 16:12:57;;;;;;;0.10;0.10;;;18.80;74.70;;;;;;5019999;28;20022;-95
2023/08/26 16:15:22;;;;;;;0.05;0.05;;;18.80;74.80;;;;;;5018648;28;20033;-94
2023/08/26 16:17:48;;;;;;;0.00;0.00;;;18.90;75.70;;;;;;5013980;28;20014;-93
2023/08/26 16:20:14;;;;;;;0.00;0.00;;;19.00;75.60;;;;;;5017020;28;20026;-92
2023/08/26 16:22:40;;;;;;;0.10;0.10;;;19.20;75.70;;;;;;5016452;28;20057;-93
2023/08/26 16:25:06;;;;;;;0.35;0.10;;;19.60;74.20;;;;;;5014677;28;20038;-93
2023/08/26 16:27:34;;;;;;;0.10;0.10;;;19.90;74.10;;;;;;5017716;28;20029;-92
2023/08/26 16:30:04;;;;;;;0.10;0.10;;;20.10;73.80;;;;;;5015815;28;20034;-93
2023/08/26 16:32:31;;;;;;;0.00;0.00;;;20.30;72.30;;;;;;5012252;28;20080;-94
2023/08/26 16:34:57;;;;;;;0.10;0.10;;;20.30;71.20;;;;;;5016662;28;20034;-93
2023/08/26 16:37:23;;;;;;;0.00;0.00;;;20.30;72.30;;;;;;5017408;28;20029;-92
2023/08/26 16:39:49;;;;;;;0.10;0.10;;;20.20;72.50;;;;;;5012403;28;20054;-92
2023/08/26 16:42:15;;;;;;;0.03;0.03;;;20.10;73.30;;;;;;5016824;28;20116;-92
2023/08/26 16:44:40;;;;;;;0.00;0.00;;;20.00;74.00;;;;;;5017572;28;20056;-93
2023/08/26 16:47:07;;;;;;;0.00;0.00;;;19.90;74.30;;;;;;5021213;28;20022;-93
2023/08/26 16:49:33;;;;;;;0.08;0.08;;;19.80;74.80;;;;;;5015646;28;20057;-92
2023/08/26 16:51:59;;;;;;;0.25;0.08;;;19.70;75.20;;;;;;5019947;28;20029;-92
2023/08/26 16:54:25;;;;;;;0.00;0.00;;;19.80;75.30;;;;;;5010874;28;20046;-90
2023/08/26 16:56:51;;;;;;;0.00;0.00;;;19.80;75.60;;;;;;5003434;28;20030;-89
2023/08/26 16:59:17;;;;;;;0.00;0.00;;;19.80;75.70;;;;;;5004464;28;20423;-88
2023/08/26 17:01:43;;;;;;;0.00;0.00;;;19.90;75.40;;;;;;5012925;28;20077;-87
2023/08/26 17:04:08;;;;;;;0.08;0.08;;;19.80;75.90;;;;;;5008272;28;20396;-88
2023/08/26 17:06:34;;;;;;;0.00;0.00;;;19.70;75.80;;;;;;5005333;28;20031;-88
2023/08/26 17:09:00;;;;;;;0.00;0.00;;;19.60;75.80;;;;;;5004909;28;20030;-85
2023/08/26 17:11:25;;;;;;;0.00;0.00;;;19.60;75.70;;;;;;5001551;28;20705;-91
2023/08/26 17:13:51;;;;;;;0.00;0.00;;;19.50;75.60;;;;;;5014986;28;20036;-90
2023/08/26 17:16:17;;;;;;;0.00;0.00;;;19.50;76.30;;;;;;5016795;28;20018;-91
2023/08/26 17:18:42;;;;;;;0.00;0.00;;;19.50;76.40;;;;;;5016371;28;20167;-87